Time;durP1;ratioP1;P1;durP2;ratioP2;P2;SDS_P1;SDS_P2;PMS_P1;PMS_P2;Temp;Humidity;BMP_temperature;BMP_pressure;BME280_temperature;BME280_humidity;BME280_pressure;Samples;Min_cycle;Max_cycle;Signal;HPM_P1;HPM_P2
2023/06/21 07:01:21;;;;;;;0.88;0.88;;;23.90;99.90;26.80;101422.00;;;;6218079;22;1384995;-62
2023/06/21 07:03:50;;;;;;;1.70;1.00;;;23.90;99.90;27.40;101456.00;;;;6251145;22;20205;-62
2023/06/21 07:06:21;;;;;;;2.08;1.58;;;24.50;99.90;27.20;101452.00;;;;6278433;22;20221;-63
2023/06/21 07:08:50;;;;;;;0.88;0.70;;;24.60;99.90;26.50;101430.00;;;;6277729;22;20148;-62
2023/06/21 07:11:20;;;;;;;2.25;1.50;;;24.00;99.90;26.00;101427.00;;;;6278364;22;20137;-62
2023/06/21 07:13:51;;;;;;;1.85;1.73;;;23.70;99.90;26.80;101424.00;;;;6278706;22;20255;-62
2023/06/21 07:16:20;;;;;;;2.42;1.95;;;23.90;99.90;24.60;101425.00;;;;6278670;22;20137;-62
2023/06/21 07:18:48;;;;;;;1.58;1.48;;;23.30;99.90;27.00;101459.00;;;;6252158;22;20137;-62
2023/06/21 07:21:19;;;;;;;1.70;1.30;;;23.90;99.90;27.00;101467.00;;;;6278551;22;20228;-63
2023/06/21 07:23:48;;;;;;;1.25;0.98;;;24.50;99.90;28.30;101481.00;;;;6277440;22;20260;-63
2023/06/21 07:26:19;;;;;;;0.70;0.45;;;25.00;99.90;27.70;101499.00;;;;6251200;22;20157;-62
2023/06/21 07:28:51;;;;;;;0.35;0.35;;;25.10;99.90;28.90;101531.00;;;;6277893;22;20137;-63
2023/06/21 07:31:19;;;;;;;0.10;0.10;;;26.00;99.90;29.40;101537.00;;;;6251507;22;20149;-63
2023/06/21 07:33:49;;;;;;;1.27;1.05;;;26.20;99.90;28.30;101534.00;;;;6277821;22;20616;-62
2023/06/21 07:36:15;;;;;;;0.55;0.47;;;25.70;99.90;28.50;101493.00;;;;6278332;22;20171;-63
2023/06/21 07:38:46;;;;;;;1.02;0.93;;;25.10;99.90;28.90;101546.00;;;;6250945;22;20612;-63
2023/06/21 07:41:25;;;;;;;0.75;0.75;;;26.10;99.90;28.70;101534.00;;;;6278451;22;20151;-63
2023/06/21 07:43:59;;;;;;;1.25;1.15;;;25.80;99.90;27.40;101516.00;;;;6278087;22;20616;-62
2023/06/21 07:46:27;;;;;;;1.42;1.33;;;25.00;99.90;25.60;101470.00;;;;6278250;22;20167;-62
2023/06/21 07:48:53;;;;;;;0.75;0.75;;;23.80;99.90;27.70;101482.00;;;;6251083;22;20608;-62
2023/06/21 07:51:19;;;;;;;0.35;0.35;;;24.40;99.90;30.00;101515.00;;;;6277975;22;20144;-62
2023/06/21 07:53:50;;;;;;;0.65;0.65;;;25.80;99.90;29.60;101550.00;;;;6277786;22;20152;-63
2023/06/21 07:56:16;;;;;;;0.32;0.32;;;26.80;99.90;27.00;101586.00;;;;6251243;22;20588;-62
2023/06/21 07:58:43;;;;;;;0.10;0.10;;;25.70;99.90;28.60;101541.00;;;;6278038;22;20149;-63
2023/06/21 08:01:11;;;;;;;0.20;0.20;;;25.30;99.90;31.50;101526.00;;;;6245573;23;20490;-63
2023/06/21 08:03:43;;;;;;;7.03;0.90;;;27.20;99.90;31.40;101564.00;;;;6245960;23;20231;-63
2023/06/21 08:06:12;;;;;;;1.20;1.20;;;27.30;99.90;31.10;101563.00;;;;6245394;23;20193;-63
2023/06/21 08:08:43;;;;;;;1.10;0.60;;;27.70;99.90;31.10;101569.00;;;;6247055;22;20134;-63
2023/06/21 08:11:15;;;;;;;0.47;0.47;;;28.20;99.90;32.20;101563.00;;;;6245948;23;20157;-63
2023/06/21 08:13:43;;;;;;;0.85;0.63;;;28.40;99.90;30.70;101583.00;;;;6246952;22;20216;-63
2023/06/21 08:16:11;;;;;;;1.25;1.20;;;27.70;99.90;27.80;101621.00;;;;6247470;22;20144;-63
2023/06/21 08:18:43;;;;;;;0.50;0.50;;;25.80;99.90;28.70;101617.00;;;;6245464;23;20138;-62
2023/06/21 08:21:11;;;;;;;1.75;0.95;;;25.80;99.90;29.80;101595.00;;;;6246756;22;20134;-62
2023/06/21 08:23:43;;;;;;;0.95;0.80;;;26.40;99.90;29.50;101622.00;;;;6245628;23;20169;-63
2023/06/21 08:26:14;;;;;;;0.20;0.20;;;26.20;99.90;29.20;101619.00;;;;6245538;23;20186;-63
2023/06/21 08:28:45;;;;;;;1.50;1.20;;;26.40;99.90;28.60;101628.00;;;;6246651;23;20158;-63
2023/06/21 08:31:14;;;;;;;0.47;0.47;;;26.20;99.90;29.00;101633.00;;;;6246791;22;20166;-62
2023/06/21 08:33:45;;;;;;;0.10;0.10;;;26.20;99.90;30.70;101590.00;;;;6247110;22;20218;-63
2023/06/21 08:36:13;;;;;;;0.30;0.30;;;26.60;99.90;28.90;101614.00;;;;6246935;22;20148;-63
2023/06/21 08:38:45;;;;;;;0.10;0.10;;;26.60;99.90;30.30;101613.00;;;;6247067;22;20200;-63
2023/06/21 08:41:12;;;;;;;0.40;0.32;;;27.10;99.90;34.00;101564.00;;;;6245214;23;20632;-63
2023/06/21 08:43:40;;;;;;;0.10;0.10;;;29.10;99.90;31.90;101594.00;;;;6245281;23;20176;-63
2023/06/21 08:46:10;;;;;;;0.10;0.10;;;28.70;99.90;31.80;101585.00;;;;6246788;23;20185;-63
2023/06/21 08:48:40;;;;;;;0.10;0.10;;;28.50;99.90;32.70;101577.00;;;;6245623;23;20141;-63
2023/06/21 08:51:09;;;;;;;0.22;0.22;;;29.30;99.90;31.40;101595.00;;;;6245210;23;20146;-63
2023/06/21 08:53:46;;;;;;;0.10;0.10;;;28.60;99.90;32.80;101564.00;;;;6246612;22;20146;-63
2023/06/21 08:56:20;;;;;;;0.10;0.10;;;28.80;99.90;31.40;101586.00;;;;6245078;23;20138;-63
2023/06/21 08:59:03;;;;;;;0.10;0.10;;;29.30;99.90;34.40;101536.00;;;;6245563;23;20142;-63
2023/06/21 09:01:41;;;;;;;0.32;0.32;;;30.20;99.90;29.10;101634.00;;;;6220073;23;20169;-63
2023/06/21 09:04:13;;;;;;;0.10;0.10;;;27.90;99.90;29.30;101627.00;;;;6245224;23;20146;-62
2023/06/21 09:06:40;;;;;;;6.40;0.85;;;27.40;99.90;27.70;101645.00;;;;6244915;23;20161;-63
2023/06/21 09:09:13;;;;;;;0.90;0.90;;;25.80;99.90;30.20;101601.00;;;;6245243;23;20182;-63
2023/06/21 09:11:41;;;;;;;0.52;0.52;;;26.80;99.90;32.10;101595.00;;;;6220064;23;20157;-63
2023/06/21 09:14:10;;;;;;;0.10;0.10;;;28.10;99.90;32.10;101604.00;;;;6245068;23;20141;-63
2023/06/21 09:16:39;;;;;;;0.73;0.73;;;28.40;99.90;28.60;101656.00;;;;6244760;23;20505;-63
2023/06/21 09:19:09;;;;;;;0.10;0.10;;;26.90;99.90;30.50;101632.00;;;;6220020;23;20601;-63
2023/06/21 09:21:39;;;;;;;0.22;0.22;;;26.80;99.90;29.70;101634.00;;;;6246193;23;20226;-62
2023/06/21 09:24:07;;;;;;;0.80;0.80;;;26.80;99.90;27.80;101670.00;;;;6244924;23;20142;-63
2023/06/21 09:26:39;;;;;;;0.80;0.80;;;26.00;99.90;27.10;101665.00;;;;6245008;23;20172;-62
2023/06/21 09:29:08;;;;;;;0.35;0.35;;;25.00;99.90;29.30;101652.00;;;;6244993;23;20579;-63
2023/06/21 09:31:34;;;;;;;1.65;0.75;;;25.50;99.90;32.20;101613.00;;;;6246595;22;20228;-63
2023/06/21 09:34:05;;;;;;;0.17;0.17;;;27.80;99.90;34.00;101589.00;;;;6246436;22;20173;-63
2023/06/21 09:36:34;;;;;;;0.10;0.10;;;29.30;99.90;32.10;101609.00;;;;6246781;22;20145;-63
2023/06/21 09:39:11;;;;;;;0.43;0.43;;;29.60;99.90;29.50;101655.00;;;;6245146;23;20252;-63
2023/06/21 09:41:39;;;;;;;0.10;0.10;;;28.20;99.90;29.30;101657.00;;;;6246460;22;20443;-63
2023/06/21 09:44:05;;;;;;;0.10;0.10;;;27.30;99.90;29.30;101670.00;;;;6245122;23;20154;-62
2023/06/21 09:46:31;;;;;;;0.57;0.43;;;26.50;99.90;30.50;101646.00;;;;6219580;23;20237;-62
2023/06/21 09:49:10;;;;;;;0.20;0.20;;;26.80;99.90;33.30;101615.00;;;;6246171;23;20149;-63
2023/06/21 09:51:44;;;;;;;0.20;0.20;;;28.60;99.90;35.10;101580.00;;;;6245064;23;20456;-63
2023/06/21 09:54:10;;;;;;;1.02;1.02;;;30.20;99.90;30.80;101648.00;;;;6245080;23;20244;-63
2023/06/21 09:56:37;;;;;;;0.20;0.20;;;28.80;99.90;29.00;101681.00;;;;6246024;22;20170;-63
2023/06/21 09:59:18;;;;;;;0.10;0.10;;;27.10;99.90;33.30;101615.00;;;;6245948;22;20625;-63
2023/06/21 10:01:46;;;;;;;0.10;0.10;;;28.50;99.90;35.80;101582.00;;;;6249414;22;20140;-63
2023/06/21 10:04:16;;;;;;;0.20;0.20;;;30.60;99.90;35.00;101585.00;;;;6250150;22;20160;-63
2023/06/21 10:06:51;;;;;;;0.10;0.10;;;30.70;99.90;36.30;101578.00;;;;6276414;22;20153;-64
2023/06/21 10:09:22;;;;;;;1.85;1.55;;;31.90;99.90;33.90;101604.00;;;;6249963;22;20227;-63
2023/06/21 10:11:54;;;;;;;0.10;0.10;;;31.50;99.90;32.80;101624.00;;;;6249714;22;20161;-63
2023/06/21 10:14:26;;;;;;;0.65;0.65;;;29.60;99.90;34.80;101591.00;;;;6250450;22;20138;-63
2023/06/21 10:16:56;;;;;;;0.40;0.40;;;30.80;99.90;30.30;101648.00;;;;6276141;22;20474;-64
2023/06/21 10:19:25;;;;;;;1.00;0.88;;;28.80;99.90;29.60;101682.00;;;;6276426;22;20631;-63
2023/06/21 10:33:29;;;;;;;0.60;0.60;;;28.50;99.90;31.80;101653.00;;;;5100440;27;20607;-62
2023/06/21 10:36:04;;;;;;;1.67;1.58;;;29.40;99.90;29.50;101682.00;;;;5081299;28;20692;-64
2023/06/21 10:38:43;;;;;;;0.45;0.45;;;27.80;99.90;31.20;101661.00;;;;5084394;28;20267;-64
2023/06/21 10:41:09;;;;;;;0.47;0.47;;;28.70;99.90;31.50;101651.00;;;;5087097;28;20264;-62
2023/06/21 10:43:35;;;;;;;2.25;1.60;;;28.60;99.90;30.50;101682.00;;;;5082422;28;20234;-63
2023/06/21 10:46:05;;;;;;;1.77;0.60;;;28.20;99.90;32.50;101649.00;;;;5079878;28;20177;-64
2023/06/21 10:48:33;;;;;;;0.20;0.20;;;28.30;99.90;34.10;101623.00;;;;5075625;28;20592;-64
2023/06/21 10:51:02;;;;;;;0.10;0.10;;;29.50;99.90;36.30;101591.00;;;;5083515;28;20172;-64
2023/06/21 10:53:38;;;;;;;0.20;0.20;;;31.30;99.90;34.80;101609.00;;;;5072413;28;20197;-64
2023/06/21 10:56:07;;;;;;;0.85;0.85;;;31.60;99.90;32.70;101637.00;;;;5088081;28;20639;-62
2023/06/21 10:58:33;;;;;;;6.85;6.43;;;30.00;99.90;34.60;101623.00;;;;5079789;28;20220;-62
2023/06/21 11:01:02;;;;;;;0.13;0.13;;;30.60;99.90;31.80;101649.00;;;;5082678;28;20210;-62
2023/06/21 11:03:33;;;;;;;0.30;0.30;;;29.90;99.90;30.30;101652.00;;;;5076394;28;20224;-64
2023/06/21 11:06:23;;;;;;;1.13;0.75;;;28.60;99.90;29.10;101690.00;;;;5078054;28;20177;-64
2023/06/21 11:08:54;;;;;;;0.38;0.30;;;27.50;99.90;29.40;101711.00;;;;5073780;28;20190;-64
2023/06/21 11:11:34;;;;;;;0.85;0.85;;;27.10;99.90;32.80;101664.00;;;;5088448;28;20193;-64
2023/06/21 11:14:04;;;;;;;0.10;0.10;;;28.20;99.90;35.60;101629.00;;;;5080336;28;20193;-64
2023/06/21 11:16:36;;;;;;;1.85;0.85;;;30.80;99.90;32.10;101658.00;;;;5071886;28;20235;-62
2023/06/21 11:19:13;;;;;;;0.10;0.10;;;30.70;99.90;31.40;101674.00;;;;5078519;28;20181;-63
2023/06/21 11:22:14;;;;;;;1.05;0.95;;;28.80;99.90;31.20;101663.00;;;;5070053;28;20189;-63
2023/06/21 11:25:17;;;;;;;1.85;0.60;;;28.80;99.90;30.20;101695.00;;;;5078753;28;20271;-63
2023/06/21 11:28:29;;;;;;;0.45;0.45;;;27.60;99.90;29.20;101698.00;;;;5077003;28;20635;-63
2023/06/21 11:31:08;;;;;;;0.15;0.15;;;27.30;99.90;30.30;101694.00;;;;5081308;28;20169;-63
2023/06/21 11:34:21;;;;;;;3.00;1.00;;;27.60;99.90;33.10;101670.00;;;;5076852;28;20201;-63
2023/06/21 11:36:57;;;;;;;0.52;0.50;;;29.80;99.90;29.70;101694.00;;;;5065948;28;20613;-62
2023/06/21 11:39:23;;;;;;;0.10;0.10;;;28.50;99.90;33.80;101674.00;;;;5069917;28;20208;-63
2023/06/21 11:41:53;;;;;;;0.10;0.10;;;29.50;99.90;36.50;101633.00;;;;5061274;28;20193;-63
2023/06/21 11:44:27;;;;;;;0.40;0.40;;;31.70;99.90;36.80;101660.00;;;;5061131;28;20194;-65
2023/06/21 11:47:18;;;;;;;1.77;0.77;;;32.60;99.90;34.60;101703.00;;;;5058141;28;20188;-63
2023/06/21 11:50:01;;;;;;;0.10;0.10;;;32.10;99.90;37.30;101700.00;;;;5036425;28;20213;-63
2023/06/21 11:52:36;;;;;;;0.10;0.10;;;33.10;99.90;38.30;101718.00;;;;5067399;28;20616;-63
2023/06/21 11:55:13;;;;;;;0.20;0.20;;;34.10;99.90;36.70;101737.00;;;;5062090;28;20558;-63
2023/06/21 11:57:46;;;;;;;0.15;0.15;;;34.30;99.90;37.30;101723.00;;;;5062378;28;20181;-63
2023/06/21 12:00:13;;;;;;;0.50;0.47;;;33.50;99.90;31.80;101765.00;;;;5054668;28;20616;-62
2023/06/21 12:02:44;;;;;;;0.77;0.77;;;31.20;99.90;31.10;101763.00;;;;5064564;28;20657;-62
2023/06/21 12:05:10;;;;;;;0.10;0.10;;;29.00;99.90;33.80;101740.00;;;;5065330;28;20644;-62
2023/06/21 12:07:42;;;;;;;0.52;0.52;;;29.70;99.90;31.70;101763.00;;;;5045296;28;20216;-63
2023/06/21 12:10:10;;;;;;;0.20;0.20;;;29.30;99.90;32.00;101760.00;;;;5058275;28;20316;-62
2023/06/21 12:12:39;;;;;;;0.10;0.10;;;28.90;99.90;32.00;101764.00;;;;5060119;28;20251;-63
2023/06/21 12:15:07;;;;;;;0.10;0.10;;;29.00;99.90;33.20;101749.00;;;;5059449;28;20632;-63
2023/06/21 12:17:35;;;;;;;0.10;0.10;;;29.10;99.90;34.20;101742.00;;;;5055392;28;20187;-63
2023/06/21 12:20:09;;;;;;;0.57;0.57;;;30.00;99.90;34.80;101736.00;;;;5066895;28;20210;-62
2023/06/21 12:22:36;;;;;;;0.45;0.40;;;30.50;99.90;31.10;101777.00;;;;5064028;28;20169;-62
2023/06/21 12:25:04;;;;;;;0.20;0.20;;;29.50;99.90;30.60;101765.00;;;;5063302;28;20173;-62
2023/06/21 12:27:35;;;;;;;0.32;0.32;;;27.90;99.90;32.80;101755.00;;;;5068354;28;20186;-62
2023/06/21 12:30:04;;;;;;;0.30;0.30;;;28.60;99.90;33.70;101755.00;;;;5062949;28;20190;-63
2023/06/21 12:32:38;;;;;;;1.83;1.25;;;29.40;99.90;32.70;101753.00;;;;5058677;28;20304;-63
2023/06/21 12:35:07;;;;;;;0.30;0.30;;;29.40;99.90;31.80;101771.00;;;;5072430;28;20178;-62
2023/06/21 12:37:36;;;;;;;0.22;0.20;;;28.70;99.90;31.50;101767.00;;;;5055568;28;20654;-62
2023/06/21 12:40:06;;;;;;;0.47;0.47;;;28.30;99.90;32.70;101763.00;;;;5063369;28;20193;-62
2023/06/21 12:42:32;;;;;;;0.55;0.50;;;28.50;99.90;30.50;101780.00;;;;5064575;28;20614;-62
2023/06/21 12:45:05;;;;;;;0.50;0.50;;;27.90;99.90;30.90;101785.00;;;;5059373;28;20290;-63
2023/06/21 12:47:32;;;;;;;0.80;0.80;;;27.90;99.90;30.90;101775.00;;;;5068349;28;20602;-63
2023/06/21 12:50:01;;;;;;;0.95;0.55;;;27.60;99.90;30.20;101778.00;;;;5063874;28;20577;-63
2023/06/21 12:52:32;;;;;;;0.10;0.10;;;27.30;99.90;32.40;101761.00;;;;5047905;28;20197;-63
2023/06/21 12:55:04;;;;;;;1.90;1.52;;;27.80;99.90;30.30;101777.00;;;;5059129;28;20240;-63
2023/06/21 12:57:36;;;;;;;0.28;0.28;;;27.50;99.90;29.40;101789.00;;;;5059278;28;20277;-63
2023/06/21 13:00:05;;;;;;;0.10;0.10;;;27.10;99.90;30.70;101768.00;;;;5049304;28;20193;-63
2023/06/21 13:02:39;;;;;;;0.40;0.30;;;26.90;99.90;31.00;101771.00;;;;5054511;28;20264;-63
2023/06/21 13:05:11;;;;;;;0.50;0.50;;;27.40;99.90;30.50;101768.00;;;;5060110;28;20269;-63
2023/06/21 13:07:39;;;;;;;0.30;0.30;;;27.10;99.90;31.40;101761.00;;;;5063332;28;20192;-63
2023/06/21 13:10:11;;;;;;;3.10;1.63;;;27.40;99.90;30.70;101777.00;;;;5069854;28;20708;-63
2023/06/21 13:12:39;;;;;;;0.20;0.20;;;27.50;99.90;31.60;101759.00;;;;5066925;28;20284;-63
2023/06/21 13:15:11;;;;;;;0.10;0.10;;;27.40;99.90;31.90;101765.00;;;;5065669;28;20230;-63
2023/06/21 13:17:42;;;;;;;2.75;1.15;;;27.70;99.90;31.80;101736.00;;;;5069512;28;20213;-63
2023/06/21 13:20:11;;;;;;;0.20;0.20;;;28.10;99.90;30.40;101778.00;;;;5061808;28;20182;-63
2023/06/21 13:22:43;;;;;;;0.20;0.20;;;27.50;99.90;32.60;101751.00;;;;5069758;28;20272;-63
2023/06/21 13:25:12;;;;;;;0.57;0.57;;;28.20;99.90;33.20;101732.00;;;;5066916;28;20186;-63
2023/06/21 13:27:44;;;;;;;0.20;0.20;;;28.80;99.90;34.10;101755.00;;;;5062893;28;20625;-63
2023/06/21 13:30:13;;;;;;;3.15;1.00;;;29.40;99.90;32.90;101773.00;;;;5057453;28;20360;-63
2023/06/21 13:32:44;;;;;;;1.95;0.70;;;29.30;99.90;30.40;101788.00;;;;5052209;28;20221;-63
2023/06/21 13:35:15;;;;;;;1.67;0.77;;;28.30;99.90;30.00;101788.00;;;;5057729;28;20205;-63
2023/06/21 13:37:45;;;;;;;0.10;0.10;;;27.50;99.90;31.00;101766.00;;;;5068978;28;20189;-63
2023/06/21 13:40:14;;;;;;;0.10;0.10;;;27.30;99.90;32.30;101753.00;;;;5041320;28;20641;-63
2023/06/21 13:42:41;;;;;;;0.10;0.10;;;27.80;99.90;31.30;101761.00;;;;5067131;28;20679;-63
2023/06/21 13:45:13;;;;;;;0.75;0.75;;;27.60;99.90;30.10;101780.00;;;;5063945;28;20657;-63
2023/06/21 13:47:44;;;;;;;2.05;0.82;;;27.30;99.90;29.70;101767.00;;;;5056824;28;20663;-65
2023/06/21 13:50:12;;;;;;;0.10;0.10;;;27.20;99.90;31.20;101748.00;;;;5060019;28;20184;-63
2023/06/21 13:52:43;;;;;;;0.10;0.10;;;27.30;99.90;32.10;101741.00;;;;5067304;28;20217;-63
2023/06/21 13:55:14;;;;;;;1.98;0.82;;;27.80;99.90;33.20;101746.00;;;;5071702;28;20632;-63
2023/06/21 13:57:48;;;;;;;0.40;0.40;;;28.60;99.90;31.90;101756.00;;;;5068054;28;20265;-63
2023/06/21 14:00:18;;;;;;;0.52;0.47;;;28.80;99.90;32.30;101758.00;;;;5065706;28;20186;-63
2023/06/21 14:02:45;;;;;;;0.10;0.10;;;28.40;99.90;32.70;101757.00;;;;5066234;28;20247;-63
2023/06/21 14:05:14;;;;;;;2.55;0.70;;;28.70;99.90;33.50;101746.00;;;;5063231;28;20194;-63
2023/06/21 14:07:44;;;;;;;0.20;0.20;;;29.10;99.90;30.40;101784.00;;;;5054264;28;20280;-63
2023/06/21 14:10:16;;;;;;;0.73;0.73;;;28.30;99.90;30.90;101781.00;;;;5060392;28;20183;-63
2023/06/21 14:12:44;;;;;;;0.10;0.10;;;27.50;99.90;31.90;101766.00;;;;5059224;28;20213;-63
2023/06/21 14:15:15;;;;;;;0.47;0.47;;;27.70;99.90;31.60;101773.00;;;;5052138;28;20192;-63
2023/06/21 14:17:49;;;;;;;0.17;0.17;;;27.70;99.90;33.20;101761.00;;;;5062904;28;20721;-63
2023/06/21 14:20:17;;;;;;;0.63;0.52;;;28.50;99.90;33.40;101761.00;;;;5059178;28;20192;-63
2023/06/21 14:22:45;;;;;;;0.10;0.10;;;29.00;99.90;33.60;101760.00;;;;5063601;28;20198;-63
2023/06/21 14:25:14;;;;;;;0.90;0.90;;;29.30;99.90;31.70;101774.00;;;;5062886;28;20649;-63
2023/06/21 14:27:42;;;;;;;2.17;0.95;;;28.90;99.90;31.70;101771.00;;;;5067537;28;20189;-63
2023/06/21 14:30:11;;;;;;;0.20;0.20;;;28.40;99.90;32.20;101761.00;;;;5058517;28;20194;-63
2023/06/21 14:32:40;;;;;;;0.45;0.45;;;28.10;99.90;32.90;101756.00;;;;5065542;28;20241;-63
2023/06/21 14:35:09;;;;;;;0.35;0.35;;;28.40;99.90;32.50;101768.00;;;;5054087;28;20217;-63
2023/06/21 14:37:41;;;;;;;0.10;0.10;;;28.50;99.90;32.90;101756.00;;;;5052327;28;20181;-63
2023/06/21 14:40:13;;;;;;;0.45;0.45;;;28.60;99.90;33.60;101759.00;;;;5061227;28;20216;-63
2023/06/21 14:42:44;;;;;;;0.57;0.57;;;29.00;99.90;33.60;101764.00;;;;5054413;28;20193;-63
2023/06/21 14:45:16;;;;;;;2.30;1.08;;;29.20;99.90;33.30;101769.00;;;;5053512;28;20182;-62
2023/06/21 14:47:47;;;;;;;0.10;0.10;;;29.30;99.90;33.00;101766.00;;;;5061020;28;20182;-63
2023/06/21 14:50:16;;;;;;;0.43;0.43;;;29.00;99.90;31.90;101773.00;;;;5055481;28;20655;-65
2023/06/21 14:52:51;;;;;;;9.95;1.90;;;28.60;99.90;32.10;101775.00;;;;5059741;28;20551;-63
2023/06/21 14:55:23;;;;;;;1.20;0.95;;;28.30;99.90;31.50;101771.00;;;;5068495;28;20209;-62
2023/06/21 14:57:53;;;;;;;0.43;0.43;;;28.00;99.90;32.10;101767.00;;;;5066694;28;20182;-62
2023/06/21 15:00:22;;;;;;;0.30;0.30;;;28.10;99.90;32.50;101767.00;;;;5061985;28;20182;-63
2023/06/21 15:02:56;;;;;;;1.73;1.63;;;28.50;99.90;32.30;101765.00;;;;5065109;28;20272;-62
2023/06/21 15:05:29;;;;;;;0.10;0.10;;;28.50;99.90;31.80;101770.00;;;;5058745;28;20182;-62
2023/06/21 15:08:00;;;;;;;0.17;0.17;;;28.10;99.90;32.70;101765.00;;;;5058538;28;20663;-63
2023/06/21 15:10:29;;;;;;;0.10;0.10;;;28.40;99.90;33.30;101768.00;;;;5068934;28;20186;-63
2023/06/21 15:13:01;;;;;;;8.98;8.10;;;28.70;99.90;33.60;101767.00;;;;5066876;28;20205;-63
2023/06/21 15:15:34;;;;;;;2.40;2.20;;;29.10;99.90;33.00;101780.00;;;;5070193;28;20178;-65
2023/06/21 15:18:08;;;;;;;1.85;1.77;;;29.10;99.90;32.70;101779.00;;;;5063253;28;20179;-62
2023/06/21 15:20:39;;;;;;;0.10;0.10;;;29.00;99.90;33.80;101770.00;;;;5067778;28;20209;-64
2023/06/21 15:23:08;;;;;;;1.75;0.73;;;29.30;99.90;33.70;101770.00;;;;5056382;28;20178;-64
2023/06/21 15:25:39;;;;;;;1.33;1.30;;;29.40;99.90;33.70;101780.00;;;;5061407;28;20196;-64
2023/06/21 15:28:09;;;;;;;0.10;0.10;;;29.50;99.90;34.60;101772.00;;;;5063507;28;20272;-64
2023/06/21 15:30:40;;;;;;;0.20;0.20;;;29.80;99.90;33.40;101759.00;;;;5058566;28;20643;-64
2023/06/21 15:33:12;;;;;;;7.72;4.82;;;29.50;99.90;34.00;101772.00;;;;5064116;28;20213;-64
2023/06/21 15:35:40;;;;;;;2.10;1.55;;;29.40;99.90;33.70;101784.00;;;;5056441;28;20217;-64
2023/06/21 15:38:11;;;;;;;2.65;2.42;;;29.50;99.90;34.10;101762.00;;;;5058710;28;20809;-64
2023/06/21 15:40:40;;;;;;;0.55;0.55;;;29.60;99.90;33.90;101785.00;;;;5065796;28;20591;-64
2023/06/21 15:43:15;;;;;;;0.98;0.98;;;29.60;99.90;32.70;101765.00;;;;5061036;28;20174;-64
2023/06/21 15:45:44;;;;;;;2.00;1.65;;;29.20;99.90;31.50;101804.00;;;;5066024;28;20189;-63
2023/06/21 15:48:15;;;;;;;0.20;0.20;;;28.50;99.90;32.10;101793.00;;;;5057839;28;20186;-64
2023/06/21 15:50:49;;;;;;;0.10;0.10;;;28.40;99.90;32.60;101798.00;;;;5063923;28;20178;-63
2023/06/21 15:53:21;;;;;;;0.10;0.10;;;28.40;99.90;33.10;101790.00;;;;5065100;28;20205;-63
2023/06/21 15:55:50;;;;;;;0.20;0.20;;;28.80;99.90;34.00;101786.00;;;;5065320;28;20656;-64
2023/06/21 15:58:26;;;;;;;0.22;0.22;;;29.30;99.90;32.90;101796.00;;;;5060662;28;20182;-64
2023/06/21 16:00:54;;;;;;;0.10;0.10;;;29.20;99.90;32.80;101797.00;;;;5059584;28;20669;-63
2023/06/21 16:03:25;;;;;;;0.10;0.10;;;28.70;99.90;33.60;101790.00;;;;5056173;28;20194;-63
2023/06/21 16:05:56;;;;;;;1.90;1.20;;;29.00;99.90;33.80;101784.00;;;;5063790;28;20268;-63
2023/06/21 16:08:28;;;;;;;0.77;0.77;;;29.30;99.90;33.20;101791.00;;;;5071268;28;20177;-63
2023/06/21 16:10:59;;;;;;;0.10;0.10;;;29.40;99.90;33.10;101794.00;;;;5061620;28;20182;-63
2023/06/21 16:13:30;;;;;;;0.63;0.63;;;29.20;99.90;32.30;101790.00;;;;5068194;28;20213;-63
2023/06/21 16:15:56;;;;;;;0.57;0.57;;;28.90;99.90;33.20;101802.00;;;;5045402;28;20285;-63
2023/06/21 16:18:25;;;;;;;0.10;0.10;;;28.90;99.90;33.60;101789.00;;;;5068718;28;20273;-63
2023/06/21 16:20:59;;;;;;;0.32;0.32;;;29.00;99.90;33.20;101810.00;;;;5057603;28;20716;-63
2023/06/21 16:23:34;;;;;;;0.60;0.60;;;29.10;99.90;32.60;101818.00;;;;5057324;28;20227;-63
2023/06/21 16:26:03;;;;;;;0.55;0.55;;;28.60;99.90;32.60;101820.00;;;;5059398;28;20250;-63
2023/06/21 16:28:34;;;;;;;0.52;0.52;;;28.50;99.90;32.70;101816.00;;;;5046050;28;20624;-63
2023/06/21 16:31:08;;;;;;;0.60;0.60;;;28.60;99.90;32.50;101822.00;;;;5059902;28;20190;-63
2023/06/21 16:33:34;;;;;;;0.32;0.32;;;28.50;99.90;31.60;101822.00;;;;5043451;28;20244;-63
2023/06/21 16:36:02;;;;;;;0.25;0.25;;;28.10;99.90;31.70;101820.00;;;;5059848;28;20265;-63
2023/06/21 16:38:40;;;;;;;11.75;1.63;;;27.90;99.90;32.10;101794.00;;;;5053548;28;20200;-63
2023/06/21 16:41:14;;;;;;;0.10;0.10;;;28.00;99.90;31.70;101813.00;;;;5057531;28;20257;-63
2023/06/21 16:43:43;;;;;;;0.20;0.20;;;27.90;99.90;31.60;101808.00;;;;5055572;28;20191;-63
2023/06/21 16:46:17;;;;;;;0.52;0.52;;;27.70;99.90;31.70;101808.00;;;;5053587;28;20186;-63
2023/06/21 16:48:54;;;;;;;0.28;0.28;;;27.70;99.90;31.40;101806.00;;;;5057336;28;20536;-63
2023/06/21 16:51:23;;;;;;;0.45;0.45;;;27.60;99.90;31.70;101815.00;;;;5065441;28;20180;-63
2023/06/21 16:53:55;;;;;;;0.10;0.10;;;27.70;99.90;31.50;101808.00;;;;5064433;28;20198;-63
2023/06/21 16:56:24;;;;;;;1.20;0.75;;;27.50;99.90;30.90;101817.00;;;;5061499;28;20206;-63
2023/06/21 16:59:05;;;;;;;0.28;0.28;;;27.20;99.90;30.50;101812.00;;;;5065107;28;20210;-63
2023/06/21 17:01:34;;;;;;;1.10;1.02;;;27.10;99.90;29.60;101811.00;;;;5056964;28;20195;-63
2023/06/21 17:04:08;;;;;;;0.75;0.75;;;26.50;99.90;29.40;101814.00;;;;5063594;28;20256;-63
2023/06/21 17:06:39;;;;;;;0.35;0.32;;;26.40;99.90;29.10;101805.00;;;;5063366;28;20189;-63
2023/06/21 17:09:10;;;;;;;0.10;0.10;;;26.00;99.90;29.50;101802.00;;;;5062423;28;20592;-63
2023/06/21 17:11:45;;;;;;;0.57;0.57;;;25.90;99.90;29.50;101801.00;;;;5060495;28;20201;-63
2023/06/21 17:14:17;;;;;;;1.73;0.60;;;26.00;99.90;29.30;101812.00;;;;5058834;28;20200;-63
2023/06/21 17:16:45;;;;;;;0.30;0.30;;;26.00;99.90;29.60;101807.00;;;;5064640;28;20264;-63
2023/06/21 17:19:18;;;;;;;0.10;0.10;;;25.90;99.90;29.40;101808.00;;;;5066818;28;20194;-63
2023/06/21 17:21:53;;;;;;;1.00;1.00;;;25.70;99.90;29.70;101806.00;;;;5063715;28;20263;-63
2023/06/21 17:24:25;;;;;;;0.10;0.10;;;25.90;99.90;30.00;101806.00;;;;5054286;28;20258;-63
2023/06/21 17:26:59;;;;;;;0.10;0.10;;;26.10;99.90;29.50;101817.00;;;;5051066;28;20197;-63
2023/06/21 17:29:33;;;;;;;0.80;0.75;;;25.80;99.90;28.90;101827.00;;;;5061451;28;20276;-63
2023/06/21 17:32:07;;;;;;;0.20;0.20;;;25.70;99.90;28.80;101836.00;;;;5067274;28;20221;-63
2023/06/21 17:34:39;;;;;;;0.25;0.22;;;25.50;99.90;28.20;101841.00;;;;5072094;28;20238;-63
2023/06/21 17:37:11;;;;;;;0.10;0.10;;;25.20;99.90;28.60;101838.00;;;;5070423;28;20197;-63
2023/06/21 17:39:47;;;;;;;0.90;0.90;;;25.10;99.90;28.10;101823.00;;;;5063089;28;20271;-63
2023/06/21 17:42:38;;;;;;;0.70;0.50;;;24.90;99.90;27.50;101837.00;;;;5062522;28;20204;-63
2023/06/21 17:45:12;;;;;;;0.10;0.10;;;24.70;99.90;27.90;101821.00;;;;5054181;28;20178;-63
2023/06/21 17:47:38;;;;;;;0.10;0.10;;;24.50;99.90;28.60;101811.00;;;;5058459;28;20683;-63
2023/06/21 17:50:12;;;;;;;0.68;0.47;;;24.70;99.90;27.90;101808.00;;;;5057871;28;20316;-63
2023/06/21 17:53:03;;;;;;;0.10;0.10;;;24.80;99.90;28.60;101782.00;;;;5057780;28;20296;-63
2023/06/21 17:55:31;;;;;;;0.70;0.70;;;24.80;99.90;29.00;101796.00;;;;5063397;28;20174;-63
2023/06/21 17:58:20;;;;;;;0.10;0.10;;;25.00;99.90;28.60;101810.00;;;;5058166;28;20188;-63
2023/06/21 18:00:57;;;;;;;1.15;1.15;;;25.00;99.90;27.70;101801.00;;;;5056121;28;20232;-63
2023/06/21 18:03:35;;;;;;;0.15;0.15;;;24.50;99.90;28.40;101809.00;;;;5048283;28;20200;-63
2023/06/21 18:06:01;;;;;;;0.10;0.10;;;24.50;99.90;28.10;101786.00;;;;5065749;28;20235;-63
2023/06/21 18:08:30;;;;;;;1.00;1.00;;;24.50;99.90;28.20;101821.00;;;;5064148;28;20184;-63
2023/06/21 18:11:09;;;;;;;0.43;0.43;;;24.60;99.90;27.90;101817.00;;;;5054853;28;20551;-63
2023/06/21 18:13:44;;;;;;;0.40;0.40;;;24.40;99.90;27.60;101819.00;;;;5060968;28;20193;-63
2023/06/21 18:16:25;;;;;;;0.10;0.10;;;24.50;99.90;28.00;101811.00;;;;5061708;28;20185;-63
2023/06/21 18:18:59;;;;;;;0.10;0.10;;;24.40;99.90;28.40;101791.00;;;;5065937;28;20203;-63